Time;durP1;ratioP1;P1;durP2;ratioP2;P2;SDS_P1;SDS_P2;PMS_P1;PMS_P2;Temp;Humidity;BMP_temperature;BMP_pressure;BME280_temperature;BME280_humidity;BME280_pressure;Samples;Min_cycle;Max_cycle;Signal;HPM_P1;HPM_P2
2023/06/20 03:57:46;;;;;;;8.48;5.80;;;;;;;18.32;100.00;100430.81;5768291;28;20132;-84
2023/06/20 04:00:49;;;;;;;11.90;6.35;;;;;;;18.41;100.00;100439.50;5254631;33;33598;-84
2023/06/20 04:03:54;;;;;;;9.73;6.10;;;;;;;18.42;100.00;100440.34;5230580;33;35269;-84
2023/06/20 04:06:58;;;;;;;7.95;5.70;;;;;;;18.44;100.00;100433.59;5242077;33;35059;-84
2023/06/20 04:10:01;;;;;;;11.25;7.00;;;;;;;18.57;100.00;100438.03;5241868;33;34699;-87
2023/06/20 04:13:04;;;;;;;9.77;6.35;;;;;;;18.76;99.39;100436.16;5241950;33;33930;-86
2023/06/20 04:16:07;;;;;;;11.15;6.72;;;;;;;18.89;98.68;100441.44;5241936;33;33479;-87
2023/06/20 04:19:10;;;;;;;9.68;6.45;;;;;;;19.07;98.03;100442.44;5244014;33;33634;-87
2023/06/20 04:22:14;;;;;;;9.48;6.22;;;;;;;19.19;97.78;100448.78;5242242;33;33860;-87
2023/06/20 04:25:18;;;;;;;12.95;7.03;;;;;;;19.33;96.85;100444.75;5230719;33;33913;-87
2023/06/20 04:28:22;;;;;;;10.75;6.82;;;;;;;19.53;95.53;100439.00;5254695;33;33571;-87
2023/06/20 04:31:25;;;;;;;10.45;6.07;;;;;;;19.75;94.10;100438.47;5256212;33;33740;-87
2023/06/20 04:34:28;;;;;;;9.38;6.32;;;;;;;19.97;93.64;100442.25;5271654;33;33903;-87
2023/06/20 04:37:31;;;;;;;7.95;6.53;;;;;;;20.12;92.34;100442.62;5247678;33;35152;-88
2023/06/20 04:40:34;;;;;;;10.00;6.95;;;;;;;20.27;91.12;100444.84;5242067;33;33461;-87
2023/06/20 04:43:37;;;;;;;9.57;6.90;;;;;;;20.37;90.33;100446.97;5241663;33;34052;-89
2023/06/20 04:46:40;;;;;;;10.25;6.72;;;;;;;20.41;89.59;100442.66;5254578;33;34403;-90
2023/06/20 04:49:44;;;;;;;9.63;6.57;;;;;;;20.44;89.19;100442.19;5230973;33;33006;-91
2023/06/20 04:52:47;;;;;;;7.85;6.62;;;;;;;20.36;89.47;100428.91;5254377;33;35015;-91
2023/06/20 04:55:50;;;;;;;7.87;6.25;;;;;;;20.34;89.62;100423.66;5254523;33;33904;-88
2023/06/20 04:58:53;;;;;;;11.80;7.18;;;;;;;20.35;89.72;100425.31;5241222;33;33636;-87
2023/06/20 05:01:56;;;;;;;12.25;7.32;;;;;;;20.37;90.12;100425.91;5253452;33;33568;-87
2023/06/20 05:04:59;;;;;;;10.00;6.70;;;;;;;20.35;90.08;100439.00;5242068;33;33950;-87
2023/06/20 05:08:02;;;;;;;12.20;6.82;;;;;;;20.41;89.46;100434.47;5230323;33;33817;-87
2023/06/20 05:11:04;;;;;;;8.73;6.40;;;;;;;20.63;87.98;100445.62;5259737;33;33561;-87
2023/06/20 05:14:07;;;;;;;10.40;6.93;;;;;;;20.67;87.57;100445.97;5256864;33;33616;-87
2023/06/20 05:17:10;;;;;;;10.52;7.05;;;;;;;20.81;87.79;100452.81;5258378;33;34021;-88
2023/06/20 05:20:13;;;;;;;10.95;6.93;;;;;;;20.82;88.72;100446.25;5249127;33;35401;-87
2023/06/20 05:23:16;;;;;;;9.70;6.53;;;;;;;20.89;87.62;100457.91;5226248;33;34145;-87
2023/06/20 05:26:19;;;;;;;10.65;6.57;;;;;;;20.93;87.70;100453.59;5237887;33;33700;-88
2023/06/20 05:29:21;;;;;;;8.45;6.75;;;;;;;20.95;86.74;100459.66;5212291;34;33446;-87
2023/06/20 05:32:24;;;;;;;11.50;6.95;;;;;;;21.03;86.47;100464.75;5214493;34;34144;-87
2023/06/20 05:35:27;;;;;;;7.47;6.18;;;;;;;21.04;85.79;100466.41;5214160;34;34062;-87
2023/06/20 05:38:31;;;;;;;11.82;7.07;;;;;;;21.09;85.05;100465.69;5238079;34;33550;-87
2023/06/20 05:41:35;;;;;;;10.77;7.10;;;;;;;21.16;84.57;100457.31;5216632;33;33624;-87
2023/06/20 05:44:38;;;;;;;9.88;6.80;;;;;;;21.23;83.01;100453.31;5253530;33;33917;-87
2023/06/20 05:47:43;;;;;;;9.57;6.75;;;;;;;21.48;81.49;100458.47;5229814;33;33868;-87
2023/06/20 05:50:46;;;;;;;9.90;6.80;;;;;;;21.50;81.89;100456.31;5259906;33;34973;-87
2023/06/20 05:53:49;;;;;;;8.82;6.80;;;;;;;21.55;82.54;100454.72;5258915;33;34354;-87
2023/06/20 05:56:53;;;;;;;10.10;7.57;;;;;;;21.63;81.42;100459.81;5254443;33;33848;-87
2023/06/20 05:59:56;;;;;;;11.15;7.30;;;;;;;21.68;80.62;100457.16;5237522;33;34403;-86
2023/06/20 06:02:58;;;;;;;8.98;6.82;;;;;;;21.86;79.99;100465.09;5231650;34;33853;-87
2023/06/20 06:06:03;;;;;;;19.35;6.80;;;;;;;22.04;78.00;100457.69;5223079;34;34834;-87
2023/06/20 06:09:06;;;;;;;10.07;7.45;;;;;;;22.21;77.70;100465.94;5215594;34;33900;-87
2023/06/20 06:12:10;;;;;;;8.88;6.78;;;;;;;22.39;77.28;100460.97;5241610;34;33778;-87
2023/06/20 06:15:12;;;;;;;15.85;7.70;;;;;;;22.55;75.78;100472.13;5228753;34;34333;-87
2023/06/20 06:18:15;;;;;;;27.00;8.60;;;;;;;22.67;75.32;100477.47;5229337;34;33777;-87
2023/06/20 06:21:18;;;;;;;16.00;8.18;;;;;;;22.79;75.08;100486.44;5230189;33;34827;-87
2023/06/20 06:24:22;;;;;;;12.05;8.05;;;;;;;22.89;73.96;100481.06;5223353;34;33987;-87
2023/06/20 06:27:25;;;;;;;12.77;7.30;;;;;;;23.08;73.83;100487.91;5228736;34;33809;-87
2023/06/20 06:30:28;;;;;;;10.75;7.70;;;;;;;23.22;73.74;100480.06;5228677;34;33869;-87
2023/06/20 06:33:31;;;;;;;11.02;6.97;;;;;;;23.35;72.77;100480.75;5228529;34;33922;-87
2023/06/20 06:36:35;;;;;;;10.30;7.07;;;;;;;23.35;72.25;100484.31;5228703;34;34491;-87
2023/06/20 06:39:38;;;;;;;12.25;7.45;;;;;;;23.27;72.78;100480.13;5228612;34;32701;-87
2023/06/20 06:42:44;;;;;;;15.35;6.80;;;;;;;23.44;72.50;100480.00;5220635;34;33905;-86
2023/06/20 06:45:47;;;;;;;11.57;7.12;;;;;;;23.41;72.26;100486.03;5228462;34;33994;-86
2023/06/20 06:48:50;;;;;;;11.00;7.10;;;;;;;23.52;71.09;100484.22;5228580;34;33449;-87
2023/06/20 06:51:54;;;;;;;10.45;7.03;;;;;;;23.79;70.76;100486.94;5240604;34;33911;-87
2023/06/20 06:54:57;;;;;;;9.13;7.10;;;;;;;23.92;69.89;100480.16;5229085;34;34439;-87
2023/06/20 06:57:59;;;;;;;11.32;7.40;;;;;;;24.01;68.65;100486.81;5241583;34;34626;-88
2023/06/20 07:01:02;;;;;;;9.57;7.22;;;;;;;24.12;68.38;100480.28;5241294;34;33853;-87
2023/06/20 07:04:05;;;;;;;9.75;6.57;;;;;;;24.28;68.24;100475.72;5241800;34;34737;-88
2023/06/20 07:07:08;;;;;;;10.48;7.90;;;;;;;24.58;66.72;100477.00;5241468;34;35327;-91
2023/06/20 07:10:11;;;;;;;11.20;7.55;;;;;;;24.60;66.12;100472.88;5217241;34;34190;-92
2023/06/20 07:13:14;;;;;;;8.88;7.25;;;;;;;24.84;65.98;100478.75;5217299;34;33716;-92
2023/06/20 07:16:17;;;;;;;12.05;7.68;;;;;;;25.00;62.23;100487.06;5230171;34;34111;-91
2023/06/20 07:19:20;;;;;;;8.32;6.43;;;;;;;24.98;63.71;100492.84;5241625;34;33521;-88
2023/06/20 07:22:23;;;;;;;7.87;6.32;;;;;;;25.13;63.01;100489.31;5225113;34;33959;-88
2023/06/20 07:25:27;;;;;;;11.18;6.78;;;;;;;25.38;61.69;100485.78;5225444;34;34733;-88
2023/06/20 07:28:30;;;;;;;10.00;6.03;;;;;;;25.32;62.53;100492.41;5225498;34;33939;-88
2023/06/20 07:31:33;;;;;;;10.57;6.93;;;;;;;25.53;61.62;100496.81;5229538;33;34853;-88
2023/06/20 07:34:36;;;;;;;13.10;6.85;;;;;;;25.81;60.24;100494.63;5242603;33;33678;-87
2023/06/20 07:37:40;;;;;;;8.43;6.37;;;;;;;25.76;60.73;100489.13;5242191;33;34036;-88
2023/06/20 07:40:43;;;;;;;10.85;6.80;;;;;;;25.71;60.94;100500.12;5243147;33;34046;-88
2023/06/20 07:43:45;;;;;;;7.45;6.15;;;;;;;26.08;59.66;100499.88;5214121;34;34763;-88
2023/06/20 07:46:48;;;;;;;11.50;6.97;;;;;;;26.28;59.21;100495.44;5225603;33;33927;-88
2023/06/20 07:49:51;;;;;;;12.27;6.45;;;;;;;26.44;58.18;100497.87;5238348;33;35220;-88
2023/06/20 07:52:54;;;;;;;10.55;6.37;;;;;;;26.29;58.97;100494.31;5225310;34;34080;-88
2023/06/20 07:55:59;;;;;;;10.27;6.55;;;;;;;26.55;57.11;100489.59;5225545;34;33671;-88
2023/06/20 07:59:02;;;;;;;11.15;7.07;;;;;;;26.65;55.69;100495.91;5223224;34;33472;-88
2023/06/20 08:02:05;;;;;;;11.10;6.72;;;;;;;26.90;54.97;100492.19;5245356;34;34164;-88
2023/06/20 08:05:08;;;;;;;16.80;6.70;;;;;;;27.00;55.61;100491.31;5247943;34;35427;-87
2023/06/20 08:08:11;;;;;;;9.38;7.25;;;;;;;27.27;55.50;100490.91;5236204;34;35110;-88
2023/06/20 08:11:20;;;;;;;9.57;6.40;;;;;;;27.31;53.62;100493.94;5236338;34;33584;-87
2023/06/20 08:14:22;;;;;;;12.63;5.60;;;;;;;27.31;54.01;100496.69;5239056;34;34612;-88
2023/06/20 08:17:25;;;;;;;10.10;6.07;;;;;;;27.36;53.24;100504.97;5231027;33;35594;-89
2023/06/20 08:20:28;;;;;;;7.65;5.50;;;;;;;27.66;50.24;100494.78;5253115;33;33857;-88
2023/06/20 08:23:31;;;;;;;9.55;5.35;;;;;;;27.76;50.29;100506.59;5277012;28;34027;-86
2023/06/20 08:26:34;;;;;;;7.28;6.00;;;;;;;27.70;51.83;100506.91;5253488;33;34099;-87
2023/06/20 08:29:37;;;;;;;8.57;6.00;;;;;;;27.94;50.84;100501.50;5242903;33;34699;-85
2023/06/20 08:32:42;;;;;;;8.32;5.65;;;;;;;28.19;49.71;100498.44;5241337;33;33689;-86
2023/06/20 08:35:50;;;;;;;8.60;6.22;;;;;;;28.21;49.92;100504.53;5242925;33;34208;-87
2023/06/20 08:38:53;;;;;;;8.25;5.93;;;;;;;28.35;50.67;100492.78;5242104;33;35505;-89
2023/06/20 08:41:56;;;;;;;7.50;6.32;;;;;;;28.40;49.94;100493.53;5259827;28;35018;-88
2023/06/20 08:44:59;;;;;;;8.68;5.60;;;;;;;28.74;49.86;100487.06;5244031;33;34999;-86
2023/06/20 08:48:02;;;;;;;7.37;6.00;;;;;;;28.57;48.86;100487.53;5243450;33;33544;-88
2023/06/20 08:51:05;;;;;;;7.78;5.37;;;;;;;28.69;50.03;100485.19;5256108;33;32828;-86
2023/06/20 08:54:13;;;;;;;8.07;5.78;;;;;;;28.63;46.89;100486.34;5231463;33;33471;-87
2023/06/20 08:57:19;;;;;;;9.00;5.65;;;;;;;28.74;46.45;100475.97;5246719;33;33896;-89
2023/06/20 09:00:23;;;;;;;7.55;5.70;;;;;;;28.90;47.22;100473.81;5239527;34;33920;-89
2023/06/20 09:03:26;;;;;;;8.80;5.90;;;;;;;28.81;48.15;100482.00;5235967;34;33645;-88
2023/06/20 09:06:39;;;;;;;9.95;5.90;;;;;;;29.14;47.25;100471.03;5223372;34;34761;-87
2023/06/20 09:09:43;;;;;;;5.85;5.25;;;;;;;29.51;46.38;100463.78;5230295;34;34293;-92
2023/06/20 09:12:51;;;;;;;16.37;5.65;;;;;;;29.73;44.45;100466.78;5238618;34;34721;-91
2023/06/20 09:16:07;;;;;;;6.43;5.07;;;;;;;29.81;43.09;100470.81;5222018;34;33674;-88
2023/06/20 09:19:10;;;;;;;7.00;5.10;;;;;;;29.75;41.01;100472.84;5223517;33;33812;-88
2023/06/20 09:22:17;;;;;;;5.50;4.97;;;;;;;29.54;41.33;100477.91;5224633;33;32827;-86
2023/06/20 09:25:22;;;;;;;6.32;4.93;;;;;;;29.95;40.57;100465.28;5232451;34;33488;-87
2023/06/20 09:28:33;;;;;;;6.72;4.57;;;;;;;29.91;40.17;100467.03;5227035;34;34859;-87
2023/06/20 09:31:40;;;;;;;5.68;4.80;;;;;;;29.95;39.89;100468.91;5237455;34;34872;-88
2023/06/20 09:34:44;;;;;;;6.07;5.47;;;;;;;29.98;38.78;100468.28;5248657;34;34781;-88
2023/06/20 09:37:48;;;;;;;7.00;4.80;;;;;;;29.98;38.37;100475.78;5244147;34;33809;-88
2023/06/20 09:40:52;;;;;;;6.18;4.90;;;;;;;30.17;38.82;100472.94;5250789;34;35373;-89
2023/06/20 09:43:55;;;;;;;10.30;5.50;;;;;;;30.28;39.62;100478.03;5235712;34;33788;-89
2023/06/20 09:46:57;;;;;;;5.65;5.05;;;;;;;30.31;38.90;100473.81;5236713;34;34639;-89
2023/06/20 09:50:05;;;;;;;6.43;5.32;;;;;;;30.47;38.27;100466.78;5237208;34;34772;-90
2023/06/20 09:53:17;;;;;;;5.85;5.25;;;;;;;30.41;38.23;100465.25;5238662;34;33774;-89
2023/06/20 09:56:21;;;;;;;6.55;5.37;;;;;;;30.80;37.94;100463.94;5237958;34;34507;-90
2023/06/20 09:59:26;;;;;;;6.05;5.15;;;;;;;30.56;37.86;100466.06;5236507;34;33744;-89
2023/06/20 10:02:31;;;;;;;7.35;5.43;;;;;;;30.83;37.18;100459.69;5227883;34;32064;-90
2023/06/20 10:05:34;;;;;;;6.15;4.85;;;;;;;31.08;37.66;100461.91;5236610;34;33528;-90
2023/06/20 10:08:40;;;;;;;6.70;5.05;;;;;;;31.24;35.07;100464.31;5236998;34;33539;-89
2023/06/20 10:11:43;;;;;;;5.55;5.03;;;;;;;31.15;35.34;100459.53;5238602;34;33602;-89
2023/06/20 10:14:50;;;;;;;7.78;5.45;;;;;;;31.24;35.95;100454.03;5237815;34;33850;-90
2023/06/20 10:17:53;;;;;;;9.68;5.53;;;;;;;31.93;35.47;100464.84;5225404;34;33734;-89
2023/06/20 10:21:02;;;;;;;7.55;5.10;;;;;;;31.64;35.06;100456.97;5225984;34;34041;-90
2023/06/20 10:24:05;;;;;;;7.95;5.28;;;;;;;31.66;36.44;100454.69;5236625;34;34266;-89
2023/06/20 10:27:08;;;;;;;5.85;4.72;;;;;;;32.25;35.00;100451.75;5234847;34;33925;-90
2023/06/20 10:30:13;;;;;;;7.53;5.43;;;;;;;32.77;33.96;100449.12;5223591;34;33770;-88
2023/06/20 10:33:31;;;;;;;7.72;5.10;;;;;;;32.83;32.51;100459.00;5236780;34;33859;-89
2023/06/20 10:36:36;;;;;;;9.20;5.45;;;;;;;33.06;31.96;100458.88;5237873;34;33320;-90
2023/06/20 10:39:58;;;;;;;6.68;4.97;;;;;;;32.89;31.80;100446.53;5236706;34;33771;-87
2023/06/20 10:43:06;;;;;;;5.28;4.65;;;;;;;33.67;30.28;100437.37;5208748;34;33610;-87
2023/06/20 10:46:11;;;;;;;5.55;4.65;;;;;;;34.03;29.29;100441.69;5219915;34;35088;-87
2023/06/20 10:49:14;;;;;;;8.60;4.60;;;;;;;33.83;29.49;100435.66;5210912;34;33939;-89
2023/06/20 10:52:17;;;;;;;5.40;4.90;;;;;;;34.25;29.65;100443.41;5209559;34;34909;-86
2023/06/20 10:55:26;;;;;;;6.05;4.40;;;;;;;34.91;29.21;100445.69;5205995;34;34721;-88
2023/06/20 10:58:29;;;;;;;6.35;4.60;;;;;;;35.67;26.77;100436.19;5238704;34;35214;-87
2023/06/20 11:01:35;;;;;;;6.78;4.47;;;;;;;35.53;27.75;100438.44;5222432;34;33584;-87
2023/06/20 11:04:41;;;;;;;8.88;4.93;;;;;;;35.61;26.88;100437.56;5212776;34;33866;-87
2023/06/20 11:08:03;;;;;;;5.43;4.70;;;;;;;35.47;27.73;100426.63;5212053;34;33972;-88
2023/06/20 11:11:06;;;;;;;5.05;4.47;;;;;;;35.53;27.01;100422.44;5220452;34;34152;-87
2023/06/20 11:14:14;;;;;;;6.35;4.60;;;;;;;35.69;26.80;100427.41;5221019;34;33946;-88
2023/06/20 11:17:17;;;;;;;5.75;5.10;;;;;;;35.35;27.13;100427.41;5219941;34;33748;-87
2023/06/20 11:20:21;;;;;;;6.12;4.60;;;;;;;36.23;27.08;100424.50;5208372;34;33428;-88
2023/06/20 11:23:34;;;;;;;7.60;4.78;;;;;;;37.08;26.93;100415.16;5221245;34;33832;-87
2023/06/20 11:26:38;;;;;;;4.80;4.25;;;;;;;37.49;24.87;100410.31;5221645;34;33461;-87
2023/06/20 11:29:41;;;;;;;5.03;4.53;;;;;;;38.71;23.87;100404.97;5208736;34;33826;-87
2023/06/20 11:33:02;;;;;;;4.75;4.20;;;;;;;38.09;23.32;100405.50;5224924;34;33659;-88
2023/06/20 11:36:05;;;;;;;5.35;4.85;;;;;;;38.95;23.47;100406.72;5238203;33;33662;-87
2023/06/20 11:39:11;;;;;;;4.68;4.12;;;;;;;38.03;24.70;100398.53;5219239;34;33807;-91
2023/06/20 11:42:18;;;;;;;6.95;4.50;;;;;;;39.22;23.12;100402.03;5220206;34;33963;-91
2023/06/20 11:45:28;;;;;;;5.22;4.15;;;;;;;39.27;22.29;100393.28;5220162;34;33819;-88
2023/06/20 11:48:31;;;;;;;4.87;4.37;;;;;;;38.21;24.05;100395.34;5214801;34;33652;-88
2023/06/20 11:51:38;;;;;;;6.57;4.10;;;;;;;38.82;23.46;100394.75;5224748;34;33905;-88
2023/06/20 11:54:48;;;;;;;4.43;4.00;;;;;;;40.28;21.47;100398.75;5224898;34;34474;-88
2023/06/20 11:57:51;;;;;;;4.80;4.00;;;;;;;41.98;19.21;100390.00;5236894;33;34854;-87
2023/06/20 12:01:00;;;;;;;5.00;3.97;;;;;;;41.22;20.85;100385.56;5224628;34;34013;-88
2023/06/20 12:04:09;;;;;;;6.05;3.95;;;;;;;41.95;19.51;100381.47;5236075;33;33893;-88
2023/06/20 12:07:18;;;;;;;4.03;3.58;;;;;;;42.66;19.25;100387.62;5235855;33;33444;-88
2023/06/20 12:10:24;;;;;;;4.37;3.67;;;;;;;42.88;18.31;100379.25;5253876;33;33813;-89
2023/06/20 12:13:27;;;;;;;;;;;;;;;43.53;17.36;100377.44;5250816;33;33923;-88
2023/06/20 12:16:31;;;;;;;4.18;3.58;;;;;;;44.11;17.78;100374.28;5240259;33;34193;-88
2023/06/20 12:19:34;;;;;;;4.37;3.20;;;;;;;44.60;17.41;100371.72;5226357;34;33596;-88
2023/06/20 12:22:38;;;;;;;5.45;4.22;;;;;;;42.67;20.04;100369.41;5225278;34;34582;-88
2023/06/20 12:25:45;;;;;;;4.37;3.97;;;;;;;43.13;18.37;100368.84;5237718;33;33393;-86
2023/06/20 12:28:48;;;;;;;3.97;3.58;;;;;;;42.96;18.98;100372.41;5223683;34;34717;-86
2023/06/20 12:31:51;;;;;;;4.35;3.72;;;;;;;43.50;18.49;100370.56;5228412;34;33901;-86
2023/06/20 12:34:54;;;;;;;4.07;3.55;;;;;;;42.59;19.46;100367.75;5224769;34;34827;-86
2023/06/20 12:37:57;;;;;;;6.45;4.18;;;;;;;43.33;17.83;100354.34;5235201;34;33871;-86
2023/06/20 12:41:01;;;;;;;4.57;3.42;;;;;;;44.38;16.63;100364.50;5224325;34;33902;-86
2023/06/20 12:44:03;;;;;;;3.92;3.62;;;;;;;44.51;16.61;100357.16;5236935;34;34566;-86
2023/06/20 12:47:07;;;;;;;4.00;3.70;;;;;;;43.35;18.06;100349.84;5224735;34;34180;-85
2023/06/20 12:50:12;;;;;;;5.62;4.00;;;;;;;41.01;19.80;100357.88;5236416;34;34020;-86
2023/06/20 12:53:16;;;;;;;5.10;4.60;;;;;;;39.56;21.47;100358.06;5237933;34;33965;-85
2023/06/20 12:56:18;;;;;;;4.07;3.62;;;;;;;40.80;20.81;100349.13;5224056;34;33916;-85
2023/06/20 12:59:21;;;;;;;4.43;4.03;;;;;;;41.41;20.38;100338.53;5224178;34;33881;-86
2023/06/20 13:02:27;;;;;;;5.28;3.80;;;;;;;41.25;21.39;100335.97;5235761;34;34004;-86
2023/06/20 13:05:30;;;;;;;5.07;3.97;;;;;;;40.54;20.90;100344.31;5225198;34;34726;-85
2023/06/20 13:08:33;;;;;;;4.50;3.78;;;;;;;42.07;19.55;100342.37;5224835;34;34768;-85
2023/06/20 13:11:36;;;;;;;3.58;3.28;;;;;;;43.82;17.72;100341.41;5225346;34;33657;-86
2023/06/20 13:14:41;;;;;;;3.83;3.53;;;;;;;44.24;17.39;100339.78;5228759;34;33974;-86
2023/06/20 13:18:04;;;;;;;3.62;3.33;;;;;;;44.72;16.37;100331.50;5235703;34;33852;-87
2023/06/20 13:21:07;;;;;;;3.95;3.62;;;;;;;44.59;16.55;100333.19;5234894;34;34670;-86
2023/06/20 13:24:10;;;;;;;4.85;3.33;;;;;;;45.26;16.64;100331.28;5235145;34;33508;-86
2023/06/20 13:27:13;;;;;;;4.15;3.40;;;;;;;45.59;16.23;100337.56;5223731;34;33854;-86
2023/06/20 13:30:17;;;;;;;5.28;3.90;;;;;;;43.29;18.05;100331.63;5236237;34;33972;-86
2023/06/20 13:33:20;;;;;;;4.43;3.67;;;;;;;40.82;20.28;100331.81;5223230;34;33568;-86
2023/06/20 13:36:23;;;;;;;15.90;4.68;;;;;;;40.56;20.14;100331.44;5213573;34;34683;-86
2023/06/20 13:39:27;;;;;;;4.25;3.70;;;;;;;42.76;18.57;100320.94;5229617;34;33912;-86
2023/06/20 13:42:42;;;;;;;4.45;3.85;;;;;;;43.96;17.59;100323.59;5224129;33;34034;-86
2023/06/20 13:45:45;;;;;;;4.82;3.70;;;;;;;42.68;18.66;100322.09;5240751;33;33584;-86
2023/06/20 13:48:50;;;;;;;4.10;3.80;;;;;;;41.37;19.52;100326.38;5248064;34;33394;-86
2023/06/20 13:51:54;;;;;;;5.60;4.35;;;;;;;38.90;21.89;100333.81;5236996;34;34227;-86
2023/06/20 13:54:57;;;;;;;4.45;3.87;;;;;;;37.95;22.58;100328.44;5229230;34;33401;-86
2023/06/20 13:58:00;;;;;;;4.37;3.90;;;;;;;38.31;21.87;100324.47;5220213;34;34647;-86
2023/06/20 14:01:05;;;;;;;4.32;3.92;;;;;;;37.91;23.26;100319.91;5227225;33;33666;-85
2023/06/20 14:04:08;;;;;;;6.95;4.20;;;;;;;39.29;22.43;100323.31;5227027;34;34140;-85
2023/06/20 14:07:11;;;;;;;7.62;4.22;;;;;;;38.90;22.67;100322.56;5213399;34;33429;-85
2023/06/20 14:10:14;;;;;;;4.30;3.83;;;;;;;38.34;22.74;100312.47;5232606;34;33906;-86
2023/06/20 14:13:17;;;;;;;10.07;4.03;;;;;;;38.19;23.06;100316.97;5228593;34;33678;-85
2023/06/20 14:16:22;;;;;;;4.47;4.07;;;;;;;37.45;23.77;100314.72;5210656;34;34776;-86
2023/06/20 14:19:25;;;;;;;6.87;4.37;;;;;;;37.03;24.30;100305.94;5210258;34;33568;-85
2023/06/20 14:22:28;;;;;;;5.28;4.00;;;;;;;37.31;24.62;100314.34;5218761;34;34719;-85
2023/06/20 14:25:31;;;;;;;6.07;4.40;;;;;;;36.85;25.04;100310.22;5221749;34;33833;-85
2023/06/20 14:28:34;;;;;;;4.93;4.05;;;;;;;36.55;25.04;100311.37;5211873;34;33224;-85
2023/06/20 14:31:37;;;;;;;11.52;4.72;;;;;;;35.51;26.75;100318.37;5225821;34;35042;-85
2023/06/20 14:34:40;;;;;;;9.82;4.53;;;;;;;35.09;27.64;100315.69;5222830;34;34906;-85
2023/06/20 14:37:43;;;;;;;4.75;4.18;;;;;;;34.67;28.45;100304.53;5225299;33;34762;-85
2023/06/20 14:40:46;;;;;;;5.75;4.72;;;;;;;34.40;29.64;100308.69;5221364;34;34634;-85
2023/06/20 14:43:49;;;;;;;5.12;4.20;;;;;;;34.81;28.68;100304.28;5226494;34;35123;-85
2023/06/20 14:46:52;;;;;;;5.03;4.53;;;;;;;34.86;28.12;100306.84;5243767;34;153713;-85
2023/06/20 14:49:55;;;;;;;4.93;4.22;;;;;;;34.51;29.18;100295.91;5221108;34;34017;-85
2023/06/20 14:52:58;;;;;;;4.47;4.07;;;;;;;34.62;28.13;100295.53;5223068;34;33742;-85
2023/06/20 14:56:01;;;;;;;4.78;4.37;;;;;;;34.05;28.99;100289.34;5207012;34;33799;-85
2023/06/20 14:59:04;;;;;;;5.53;4.68;;;;;;;33.60;29.57;100294.66;5224832;34;33593;-85
2023/06/20 15:02:07;;;;;;;6.95;4.55;;;;;;;33.66;29.30;100298.06;5220199;34;34658;-85
2023/06/20 15:05:10;;;;;;;5.55;4.32;;;;;;;33.26;30.39;100293.59;5232447;34;34918;-85
2023/06/20 15:08:13;;;;;;;6.10;4.95;;;;;;;32.90;30.39;100297.56;5226007;34;33535;-85
2023/06/20 15:11:16;;;;;;;4.97;4.57;;;;;;;32.72;31.26;100293.97;5219049;33;33783;-86
2023/06/20 15:14:21;;;;;;;5.37;4.12;;;;;;;32.86;31.65;100296.59;5236097;34;34113;-85
2023/06/20 15:17:27;;;;;;;7.50;4.43;;;;;;;32.51;31.14;100284.63;5237358;34;33676;-85
2023/06/20 15:20:30;;;;;;;5.25;4.43;;;;;;;32.57;31.47;100285.28;5237825;34;34666;-86
2023/06/20 15:23:34;;;;;;;7.50;4.82;;;;;;;32.60;31.69;100273.47;5237456;34;33802;-86
2023/06/20 15:26:36;;;;;;;5.40;4.28;;;;;;;32.46;31.88;100274.47;5225328;34;33924;-86
2023/06/20 15:29:40;;;;;;;5.62;4.50;;;;;;;32.29;32.43;100277.19;5225066;34;34667;-85
2023/06/20 15:32:43;;;;;;;4.70;4.20;;;;;;;32.28;31.93;100278.34;5236731;34;34641;-85
2023/06/20 15:35:46;;;;;;;6.53;4.55;;;;;;;32.08;31.59;100268.66;5225273;34;33909;-85
2023/06/20 15:38:49;;;;;;;6.72;4.95;;;;;;;31.89;31.94;100276.47;5226965;34;33820;-85
2023/06/20 15:41:52;;;;;;;6.35;4.30;;;;;;;31.62;32.73;100267.19;5225700;34;34152;-85
2023/06/20 15:44:58;;;;;;;9.43;5.25;;;;;;;31.59;32.92;100270.59;5228660;34;33445;-86
2023/06/20 15:48:02;;;;;;;6.93;4.80;;;;;;;31.44;33.53;100265.47;5225608;34;33523;-86
